Spring Grove, Kansas
Current Conditions -  °F | °C
As of 5:53 PM on Friday 28 Nov 2014 (Local Time) from KJLN Reporting Station
Clear Clear  
Wind Chill: 58°   Ceiling: Unl
Heat Index: 58°   Visibility: 10mi
Dew Point: 37°   Wind: 14mph
Humidity: 46%   Direction: 200°SSW
Pressure: 29.88"   Gusts: NA
Location:  37.0394°N, 94.6644°W
Report Text: KJLN 282353Z 20012KT 10SM CLR 14/03 A2988 RMK AO2 SLP117 T01440028 10178 20139 55005
Loading
Personal Weather Stations






























Interactive Weather Map New forecast layout! Learn more

10-Day Weather Forecast

Advertisements
Track Severe Weather on mobile